Time;durP1;ratioP1;P1;durP2;ratioP2;P2;SDS_P1;SDS_P2;PMS_P1;PMS_P2;Temp;Humidity;BMP_temperature;BMP_pressure;BME280_temperature;BME280_humidity;BME280_pressure;Samples;Min_cycle;Max_cycle;Signal;HPM_P1;HPM_P2
2022/08/08 00:02:17;;;;;;;13.10;8.57;;;;;;;13.39;82.91;102335.75;5007581;28;20064;-80
2022/08/08 00:05:14;;;;;;;13.30;9.37;;;;;;;13.28;83.50;102326.19;5007547;28;20103;-81
2022/08/08 00:07:54;;;;;;;11.80;9.13;;;;;;;13.24;83.50;102328.44;4970836;28;20057;-81
2022/08/08 00:10:25;;;;;;;12.17;9.17;;;;;;;13.31;83.61;102323.06;5007946;28;20045;-81
2022/08/08 00:13:12;;;;;;;14.70;10.30;;;;;;;13.33;83.50;102329.16;5006970;28;20038;-81
2022/08/08 00:15:42;;;;;;;12.90;9.97;;;;;;;13.17;84.12;102330.25;5007111;28;20930;-81
2022/08/08 00:18:29;;;;;;;15.47;10.33;;;;;;;13.21;84.03;102326.13;5007669;28;20040;-81
2022/08/08 00:21:00;;;;;;;13.33;10.07;;;;;;;13.20;83.43;102327.13;4990925;28;20030;-81
2022/08/08 00:23:36;;;;;;;19.53;11.03;;;;;;;13.18;83.46;102330.06;5008189;28;20051;-81
2022/08/08 00:26:03;;;;;;;15.97;10.93;;;;;;;13.06;84.48;102331.59;5007052;28;20277;-82
2022/08/08 00:28:35;;;;;;;14.60;11.20;;;;;;;12.99;85.11;102327.97;5007744;28;20061;-81
2022/08/08 00:31:04;;;;;;;15.50;11.17;;;;;;;13.09;84.48;102327.66;5006804;28;20084;-81
2022/08/08 00:33:42;;;;;;;16.07;12.40;;;;;;;13.11;85.03;102323.72;5006667;28;20112;-81
2022/08/08 00:36:29;;;;;;;16.90;12.43;;;;;;;13.18;85.09;102334.66;5006655;28;20083;-81
2022/08/08 00:39:12;;;;;;;18.40;12.87;;;;;;;13.08;85.66;102336.84;5006770;28;20636;-81
2022/08/08 00:41:48;;;;;;;15.93;11.43;;;;;;;13.12;85.02;102338.16;5006884;28;21441;-81
2022/08/08 00:44:41;;;;;;;16.70;12.10;;;;;;;13.14;84.74;102338.81;5007249;28;20064;-81
2022/08/08 00:47:33;;;;;;;18.13;12.20;;;;;;;13.04;85.43;102335.53;5006929;28;20113;-81
2022/08/08 00:50:27;;;;;;;17.50;11.50;;;;;;;12.98;85.84;102329.81;5006784;28;20060;-82
2022/08/08 00:53:11;;;;;;;17.30;11.67;;;;;;;13.07;84.93;102327.00;5006867;28;20089;-81
2022/08/08 00:55:41;;;;;;;;;;;;;;;13.14;82.25;102325.19;5007138;28;20044;-81
2022/08/08 00:58:48;;;;;;;15.43;11.73;;;;;;;12.94;85.27;102323.09;5006996;28;19921;-81
2022/08/08 01:01:31;;;;;;;16.43;12.27;;;;;;;12.82;86.30;102319.19;5006115;28;21294;-81
2022/08/08 01:04:34;;;;;;;15.40;11.73;;;;;;;12.82;86.29;102325.47;5006651;28;20131;-81
2022/08/08 01:07:18;;;;;;;16.17;12.07;;;;;;;12.84;85.47;102319.84;5006244;28;20622;-81
2022/08/08 01:10:04;;;;;;;17.88;12.25;;;;;;;12.80;86.19;102316.66;5006830;28;20063;-81
2022/08/08 01:12:57;;;;;;;16.70;11.80;;;;;;;12.79;86.03;102314.97;5006743;28;20183;-82
2022/08/08 01:16:11;;;;;;;17.60;11.83;;;;;;;12.72;86.93;102318.66;5006253;28;20619;-81
2022/08/08 01:18:52;;;;;;;16.50;12.03;;;;;;;12.62;86.52;102318.91;4990425;28;20041;-81
2022/08/08 01:21:42;;;;;;;16.80;12.10;;;;;;;12.68;87.15;102322.78;5006770;28;20033;-81
2022/08/08 01:24:51;;;;;;;18.03;12.97;;;;;;;12.66;87.39;102321.09;5006386;28;20120;-81
2022/08/08 01:27:22;;;;;;;16.60;11.07;;;;;;;12.64;86.38;102320.41;5006058;28;20542;-82
2022/08/08 01:29:53;;;;;;;17.23;12.17;;;;;;;12.68;85.84;102322.78;5006628;28;20064;-82
2022/08/08 01:32:44;;;;;;;16.50;11.87;;;;;;;12.68;85.58;102322.78;5005189;28;20030;-81
2022/08/08 01:35:35;;;;;;;17.63;12.33;;;;;;;12.66;85.95;102325.66;5006335;28;20108;-81
2022/08/08 01:38:13;;;;;;;18.97;12.67;;;;;;;12.62;86.48;102322.50;4994352;28;20041;-82
2022/08/08 01:40:53;;;;;;;18.17;12.17;;;;;;;12.63;87.16;102318.75;5005716;28;20034;-82
2022/08/08 01:43:55;;;;;;;16.87;10.47;;;;;;;12.69;87.27;102324.44;5005957;28;20042;-82
2022/08/08 01:46:58;;;;;;;15.00;10.87;;;;;;;12.57;87.35;102318.66;5006163;28;20095;-82
2022/08/08 01:49:47;;;;;;;12.33;10.07;;;;;;;12.56;87.01;102330.56;4984574;28;20036;-82
2022/08/08 01:52:24;;;;;;;14.23;10.50;;;;;;;12.49;86.38;102319.59;5005052;28;20069;-82
2022/08/08 01:55:29;;;;;;;13.70;10.97;;;;;;;12.56;86.25;102317.81;5006432;28;20462;-82
2022/08/08 01:58:21;;;;;;;16.58;11.07;;;;;;;12.49;86.49;102319.59;4972293;28;20046;-82
2022/08/08 02:00:54;;;;;;;17.90;12.60;;;;;;;12.36;87.59;102320.25;4985949;28;20606;-82
2022/08/08 02:03:50;;;;;;;14.77;11.40;;;;;;;12.36;87.54;102319.41;5005181;28;20037;-82
2022/08/08 02:06:38;;;;;;;15.40;11.87;;;;;;;12.25;87.74;102324.31;5005632;28;20048;-81
2022/08/08 02:09:15;;;;;;;17.10;12.10;;;;;;;12.30;87.86;102319.13;5006006;28;20492;-82
2022/08/08 02:11:43;;;;;;;14.60;11.20;;;;;;;12.29;87.04;102320.19;5005160;28;20382;-82
2022/08/08 02:15:00;;;;;;;15.03;11.80;;;;;;;12.25;87.75;102324.31;5005496;28;20523;-82
2022/08/08 02:17:53;;;;;;;17.00;12.53;;;;;;;12.25;87.42;102318.00;4972496;28;21425;-82
2022/08/08 02:22:30;;;;;;;18.80;12.30;;;;;;;12.19;87.55;102314.16;5004936;28;20052;-82
2022/08/08 02:23:40;;;;;;;15.67;11.63;;;;;;;12.12;87.61;102318.66;5005028;28;20048;-82
2022/08/08 02:26:16;;;;;;;17.03;12.43;;;;;;;12.12;87.61;102307.81;5004418;28;20048;-82
2022/08/08 02:28:56;;;;;;;17.73;12.67;;;;;;;12.11;87.59;102315.09;5005224;28;20383;-82
2022/08/08 02:31:57;;;;;;;16.20;12.43;;;;;;;12.17;87.57;102316.22;5005493;28;20102;-82
2022/08/08 02:34:56;;;;;;;17.93;12.73;;;;;;;12.07;87.94;102321.09;4978667;28;20036;-82
2022/08/08 02:37:24;;;;;;;16.97;13.07;;;;;;;11.98;88.27;102315.75;5004656;28;20038;-81
2022/08/08 02:39:58;;;;;;;18.00;13.50;;;;;;;11.96;89.57;102315.06;5004733;28;20249;-82
2022/08/08 02:42:45;;;;;;;19.40;13.82;;;;;;;11.98;90.34;102317.59;5004779;28;20047;-82
2022/08/08 02:45:26;;;;;;;17.93;13.47;;;;;;;12.01;89.40;102316.38;5004945;28;20069;-82
2022/08/08 02:47:57;;;;;;;18.83;13.17;;;;;;;12.03;89.14;102320.59;5004977;28;20037;-82
2022/08/08 02:50:46;;;;;;;16.73;13.27;;;;;;;11.97;89.06;102319.47;5005139;28;20045;-82
2022/08/08 02:53:33;;;;;;;18.63;13.03;;;;;;;11.97;88.59;102322.19;5005778;28;20044;-83
2022/08/08 02:56:20;;;;;;;16.80;13.50;;;;;;;11.91;89.09;102322.91;5007916;28;20184;-82
2022/08/08 02:59:07;;;;;;;18.27;12.97;;;;;;;11.86;89.74;102316.31;5008267;28;20040;-83
2022/08/08 03:02:10;;;;;;;16.87;13.03;;;;;;;11.90;89.14;102317.66;4990820;28;20140;-82
2022/08/08 03:05:09;;;;;;;17.33;13.57;;;;;;;11.89;89.31;102316.81;5009347;28;20132;-82
2022/08/08 03:07:53;;;;;;;16.13;12.07;;;;;;;11.83;88.34;102314.81;5009384;28;20045;-82
2022/08/08 03:10:36;;;;;;;18.53;13.23;;;;;;;11.88;88.16;102323.25;5008684;28;20689;-83
2022/08/08 03:13:16;;;;;;;16.67;12.80;;;;;;;11.74;88.98;102326.81;5009009;28;20040;-82
2022/08/08 03:16:09;;;;;;;17.87;13.33;;;;;;;11.77;89.33;102329.97;5008203;28;20040;-82
2022/08/08 03:18:53;;;;;;;17.00;12.97;;;;;;;11.76;89.65;102325.59;5007724;28;20102;-82
2022/08/08 03:21:18;;;;;;;17.65;13.45;;;;;;;11.75;89.43;102329.34;5007790;28;20370;-82
2022/08/08 03:23:44;;;;;;;19.67;14.17;;;;;;;11.72;90.25;102331.56;5008694;28;20469;-82
2022/08/08 03:26:10;;;;;;;17.10;13.70;;;;;;;11.65;90.89;102329.59;5007713;28;20132;-82
2022/08/08 03:28:42;;;;;;;23.23;14.40;;;;;;;11.63;92.08;102330.81;5007626;28;20846;-83
2022/08/08 03:33:52;;;;;;;19.67;14.18;;;;;;;11.66;91.74;102336.69;5007880;28;20181;-83
2022/08/08 03:36:18;;;;;;;17.57;13.53;;;;;;;11.68;91.44;102344.66;5008370;28;20126;-83
2022/08/08 03:38:51;;;;;;;20.50;14.27;;;;;;;11.56;92.32;102330.69;5009395;28;20030;-83
2022/08/08 03:41:17;;;;;;;21.60;14.43;;;;;;;11.58;92.37;102338.66;5008044;28;20045;-83
2022/08/08 03:43:56;;;;;;;19.97;14.80;;;;;;;11.61;92.57;102336.41;5007690;28;20124;-83
2022/08/08 03:46:22;;;;;;;22.77;14.23;;;;;;;11.54;92.87;102332.72;5008850;28;20042;-83
2022/08/08 03:48:57;;;;;;;20.67;13.73;;;;;;;11.65;93.08;102345.88;5008088;28;20552;-82
2022/08/08 03:51:24;;;;;;;20.00;13.53;;;;;;;11.59;91.54;102337.63;5008614;28;20034;-83
2022/08/08 03:53:51;;;;;;;18.00;13.27;;;;;;;11.67;91.00;102340.28;5006957;28;20033;-83
2022/08/08 03:56:18;;;;;;;17.20;12.87;;;;;;;11.67;90.85;102345.69;5006999;28;20040;-83
2022/08/08 03:58:51;;;;;;;16.87;13.73;;;;;;;11.49;91.71;102329.69;5007869;28;20041;-83
2022/08/08 04:01:17;;;;;;;19.33;13.53;;;;;;;11.49;91.88;102340.56;5007928;28;20121;-83
2022/08/08 04:03:48;;;;;;;16.57;12.77;;;;;;;11.57;91.43;102343.25;5007463;28;20300;-83
2022/08/08 04:06:14;;;;;;;18.93;13.33;;;;;;;11.54;91.61;102357.16;4986341;28;20092;-83
2022/08/08 04:08:41;;;;;;;17.73;13.07;;;;;;;11.48;91.62;102355.19;5007096;28;20096;-83
2022/08/08 04:11:07;;;;;;;18.70;13.27;;;;;;;11.39;91.59;102351.66;5008530;28;21337;-83
2022/08/08 04:13:33;;;;;;;19.43;13.00;;;;;;;11.49;91.15;102357.72;4987882;28;20048;-83
2022/08/08 04:16:00;;;;;;;18.03;14.20;;;;;;;11.38;92.17;102355.44;5007072;28;20572;-83
2022/08/08 04:18:25;;;;;;;20.00;13.30;;;;;;;11.49;92.12;102352.28;4987789;28;20175;-83
2022/08/08 04:20:51;;;;;;;16.57;12.90;;;;;;;11.49;91.11;102356.84;4988173;28;20045;-83
2022/08/08 04:23:16;;;;;;;17.37;13.07;;;;;;;11.46;91.47;102349.94;4995376;28;20594;-84
2022/08/08 04:25:42;;;;;;;18.37;12.97;;;;;;;11.44;91.47;102359.28;5006558;28;20544;-83
2022/08/08 04:28:08;;;;;;;17.73;13.70;;;;;;;11.49;91.36;102354.13;4986993;28;20553;-83
2022/08/08 04:30:34;;;;;;;20.90;14.13;;;;;;;11.42;92.31;102353.19;4987986;28;20037;-83
2022/08/08 04:33:06;;;;;;;19.93;13.23;;;;;;;11.46;92.61;102352.66;4988819;28;20045;-83
2022/08/08 04:35:31;;;;;;;18.80;13.70;;;;;;;11.42;92.18;102354.03;5006623;28;20091;-83
2022/08/08 04:37:56;;;;;;;18.17;13.67;;;;;;;11.46;92.06;102354.50;5006627;28;20470;-83
2022/08/08 04:40:22;;;;;;;21.23;13.83;;;;;;;11.49;92.31;102365.00;5006909;28;20029;-83
2022/08/08 04:42:48;;;;;;;19.43;14.80;;;;;;;11.53;92.72;102373.63;5007596;28;20042;-83
2022/08/08 04:45:13;;;;;;;19.40;13.80;;;;;;;11.54;92.78;102372.59;5006624;28;20038;-83
2022/08/08 04:47:39;;;;;;;19.33;14.33;;;;;;;11.47;92.92;102377.91;5006722;28;20466;-84
2022/08/08 04:50:06;;;;;;;21.23;15.30;;;;;;;11.55;93.44;102383.28;5007015;28;20036;-83
2022/08/08 04:52:31;;;;;;;19.10;15.00;;;;;;;11.59;93.73;102383.78;5006397;28;20048;-84
2022/08/08 04:54:56;;;;;;;20.77;14.17;;;;;;;11.68;93.33;102387.25;5006788;28;20034;-83
2022/08/08 04:57:22;;;;;;;19.73;14.87;;;;;;;11.68;93.22;102387.25;5005930;28;20374;-83
2022/08/08 04:59:47;;;;;;;19.93;14.50;;;;;;;11.72;93.01;102392.16;4986990;28;20068;-83
2022/08/08 05:02:13;;;;;;;19.57;14.40;;;;;;;11.69;93.10;102397.09;5006928;28;20123;-83
2022/08/08 05:04:38;;;;;;;22.73;15.33;;;;;;;11.72;93.87;102405.75;5006518;28;20037;-84
2022/08/08 05:07:04;;;;;;;20.70;16.10;;;;;;;11.72;94.50;102399.44;5005659;28;20561;-83
2022/08/08 05:09:29;;;;;;;21.50;16.03;;;;;;;11.80;94.58;102408.41;4967305;28;20048;-83
2022/08/08 05:11:55;;;;;;;24.30;16.27;;;;;;;11.91;95.00;102404.41;5006845;28;20048;-83
2022/08/08 05:14:20;;;;;;;21.17;15.73;;;;;;;11.88;95.43;102410.19;5006377;28;20067;-83
2022/08/08 05:16:46;;;;;;;22.40;16.97;;;;;;;11.94;95.98;102406.78;5005254;28;20134;-84
2022/08/08 05:19:11;;;;;;;22.73;18.20;;;;;;;12.15;97.44;102402.50;5006365;28;20046;-83
2022/08/08 05:21:39;;;;;;;28.07;18.00;;;;;;;12.18;97.14;102394.00;5006128;28;20044;-82
2022/08/08 05:24:05;;;;;;;24.83;17.67;;;;;;;12.41;97.71;102403.97;5005879;28;20045;-83
2022/08/08 05:26:31;;;;;;;23.50;18.23;;;;;;;12.47;98.11;102398.63;4987097;28;20048;-83
2022/08/08 05:28:56;;;;;;;23.77;18.07;;;;;;;12.58;98.44;102399.19;4986178;28;20058;-83
2022/08/08 05:31:21;;;;;;;25.77;19.13;;;;;;;12.67;99.57;102408.94;4986861;28;20077;-83
2022/08/08 05:33:47;;;;;;;23.93;18.23;;;;;;;12.75;98.95;102410.72;5005723;28;20076;-82
2022/08/08 05:36:15;;;;;;;23.23;17.40;;;;;;;12.89;98.63;102403.59;4985813;28;20042;-83
2022/08/08 05:38:46;;;;;;;23.03;17.67;;;;;;;13.00;98.25;102403.97;5005498;28;20038;-83
2022/08/08 05:41:14;;;;;;;22.40;16.57;;;;;;;13.14;98.41;102415.00;5005486;28;20033;-82
2022/08/08 05:43:44;;;;;;;22.63;17.53;;;;;;;13.23;98.45;102424.75;5006156;28;20029;-83
2022/08/08 05:46:10;;;;;;;22.23;16.90;;;;;;;13.33;98.00;102419.84;5005516;28;20500;-82
2022/08/08 05:48:36;;;;;;;20.97;17.27;;;;;;;13.38;97.60;102422.03;5004123;28;20026;-82
2022/08/08 05:51:03;;;;;;;22.03;16.73;;;;;;;13.55;96.87;102417.19;5004507;28;20046;-84
2022/08/08 05:53:28;;;;;;;24.30;17.13;;;;;;;13.67;96.42;102429.25;5005044;28;20630;-82
2022/08/08 05:56:13;;;;;;;22.50;16.53;;;;;;;13.75;96.08;102430.16;5005479;28;20045;-83
2022/08/08 05:58:41;;;;;;;22.77;15.47;;;;;;;13.86;95.43;102426.91;4985618;28;20066;-82
2022/08/08 06:01:21;;;;;;;21.10;15.27;;;;;;;13.96;95.27;102419.25;5005524;28;20049;-83
2022/08/08 06:03:49;;;;;;;21.67;14.70;;;;;;;14.08;94.88;102421.47;5005261;28;20531;-83
2022/08/08 06:06:15;;;;;;;19.23;14.10;;;;;;;14.12;95.00;102420.84;5001949;28;20057;-83
2022/08/08 06:08:51;;;;;;;19.50;14.23;;;;;;;14.31;94.40;102429.41;5003158;28;20045;-82
2022/08/08 06:11:18;;;;;;;20.23;14.27;;;;;;;14.45;94.15;102422.16;5002504;28;20541;-82
2022/08/08 06:13:45;;;;;;;19.93;14.00;;;;;;;14.57;93.32;102428.75;5002474;28;20435;-81
2022/08/08 06:16:12;;;;;;;21.63;14.17;;;;;;;14.71;93.68;102426.13;4999304;28;20045;-81
2022/08/08 06:18:39;;;;;;;21.27;15.57;;;;;;;14.79;94.65;102424.06;5003324;28;20091;-81
2022/08/08 06:21:07;;;;;;;22.43;15.63;;;;;;;14.88;93.50;102432.94;5001622;28;20072;-82
2022/08/08 06:23:32;;;;;;;18.20;13.97;;;;;;;14.92;93.04;102420.59;5002783;28;20092;-84
2022/08/08 06:26:03;;;;;;;18.83;14.20;;;;;;;15.16;92.77;102429.28;5001716;28;21113;-81
2022/08/08 06:28:52;;;;;;;18.23;13.97;;;;;;;15.26;92.22;102439.81;5001715;28;20085;-83
2022/08/08 06:31:22;;;;;;;21.20;14.47;;;;;;;15.36;91.89;102432.09;5001956;28;20769;-81
2022/08/08 06:33:57;;;;;;;20.97;13.00;;;;;;;15.49;90.98;102439.47;5001848;28;20045;-83
2022/08/08 06:36:30;;;;;;;16.00;12.50;;;;;;;15.66;90.60;102448.97;5002556;28;20034;-81
2022/08/08 06:38:58;;;;;;;19.70;14.68;;;;;;;15.82;92.12;102438.75;5001756;28;20033;-82
2022/08/08 06:41:25;;;;;;;19.93;14.43;;;;;;;15.93;89.34;102443.59;5001970;28;20034;-82
2022/08/08 06:43:56;;;;;;;16.63;13.03;;;;;;;16.03;87.88;102444.03;5002401;28;20465;-82
2022/08/08 06:46:21;;;;;;;17.83;13.30;;;;;;;16.15;88.49;102444.22;5001238;28;20546;-83
2022/08/08 06:48:48;;;;;;;17.63;13.57;;;;;;;16.28;87.31;102443.41;4981477;28;20042;-81
2022/08/08 06:51:14;;;;;;;18.60;13.70;;;;;;;16.42;87.88;102443.41;5001809;28;20034;-81
2022/08/08 06:53:40;;;;;;;17.97;12.27;;;;;;;16.59;84.51;102454.72;5002909;28;20049;-80
2022/08/08 06:56:07;;;;;;;18.77;12.43;;;;;;;16.66;84.59;102456.41;4989489;28;20043;-81
2022/08/08 06:58:33;;;;;;;18.03;12.17;;;;;;;16.77;83.54;102451.31;5001129;28;20030;-82
2022/08/08 07:01:01;;;;;;;16.10;12.10;;;;;;;16.95;82.54;102448.78;5002109;28;20545;-80
2022/08/08 07:06:56;;;;;;;16.03;12.10;;;;;;;17.22;80.48;102459.63;5001743;28;20055;-80
2022/08/08 07:09:36;;;;;;;14.23;10.40;;;;;;;17.33;79.38;102456.22;5001016;28;20052;-80
2022/08/08 07:12:06;;;;;;;13.60;9.10;;;;;;;17.47;78.50;102459.72;5001440;28;20030;-82
2022/08/08 07:14:46;;;;;;;15.17;9.00;;;;;;;17.70;78.44;102466.56;5001619;28;21389;-81
2022/08/08 07:17:23;;;;;;;11.97;7.97;;;;;;;17.79;77.54;102469.88;5001176;28;20174;-82
2022/08/08 07:20:07;;;;;;;10.07;5.70;;;;;;;17.96;76.40;102470.22;5001567;28;20026;-82
2022/08/08 07:22:54;;;;;;;10.65;6.28;;;;;;;18.10;76.20;102470.94;5000991;28;20041;-82
2022/08/08 07:25:20;;;;;;;8.47;4.90;;;;;;;18.14;74.38;102480.41;5000933;28;20069;-82
2022/08/08 07:28:14;;;;;;;8.07;4.80;;;;;;;18.38;75.47;102474.09;4982364;28;20394;-79
2022/08/08 07:30:41;;;;;;;7.97;4.70;;;;;;;18.42;74.27;102474.50;5001564;28;20034;-80
2022/08/08 07:33:10;;;;;;;7.97;4.57;;;;;;;18.59;74.18;102483.00;4984004;28;20282;-79
2022/08/08 07:35:37;;;;;;;8.23;4.20;;;;;;;18.83;73.08;102477.69;5000839;28;20516;-79
2022/08/08 07:38:02;;;;;;;9.27;4.30;;;;;;;18.94;71.32;102476.94;5002002;28;20038;-81
2022/08/08 07:40:28;;;;;;;7.23;4.10;;;;;;;18.95;71.56;102475.88;4986954;28;20037;-81
2022/08/08 07:42:54;;;;;;;6.82;3.60;;;;;;;19.04;71.10;102481.94;5005466;28;20026;-81
2022/08/08 07:45:20;;;;;;;8.85;4.03;;;;;;;19.10;69.87;102481.00;5004242;28;20046;-79
2022/08/08 07:47:46;;;;;;;4.47;3.00;;;;;;;19.16;69.15;102480.09;5004992;28;20037;-78
2022/08/08 07:50:12;;;;;;;6.73;3.30;;;;;;;19.25;70.22;102483.34;5005562;28;20033;-80
2022/08/08 07:52:40;;;;;;;7.28;3.17;;;;;;;19.33;68.88;102477.53;4985855;28;20048;-81
2022/08/08 07:55:18;;;;;;;7.07;3.38;;;;;;;19.50;69.37;102482.41;5005076;28;20045;-78
2022/08/08 07:57:43;;;;;;;6.38;2.85;;;;;;;19.58;68.49;102482.06;5004542;28;20113;-80
2022/08/08 08:00:46;;;;;;;4.03;2.72;;;;;;;19.72;68.86;102483.56;5004412;28;20503;-79
2022/08/08 08:03:18;;;;;;;7.45;3.10;;;;;;;19.63;66.27;102482.22;5004976;28;20045;-78
2022/08/08 08:05:48;;;;;;;5.50;3.03;;;;;;;19.59;66.43;102486.50;5005096;28;20472;-81
2022/08/08 08:08:52;;;;;;;9.13;3.60;;;;;;;19.79;66.45;102490.91;5004786;28;20631;-81
2022/08/08 08:11:22;;;;;;;8.40;3.45;;;;;;;19.93;66.86;102494.31;5004241;28;20036;-79
2022/08/08 08:13:47;;;;;;;8.38;3.53;;;;;;;20.10;65.31;102495.31;5005075;28;20092;-78
2022/08/08 08:16:21;;;;;;;6.47;2.92;;;;;;;20.37;65.06;102489.38;5004320;28;20034;-79
2022/08/08 08:18:52;;;;;;;8.98;2.83;;;;;;;20.49;63.64;102497.66;5005138;28;20745;-81
2022/08/08 08:21:19;;;;;;;5.75;2.67;;;;;;;20.46;63.53;102495.38;5003702;28;20122;-80
2022/08/08 08:23:44;;;;;;;4.88;2.60;;;;;;;20.65;62.97;102491.41;5004402;28;20045;-80
2022/08/08 08:26:12;;;;;;;7.03;2.15;;;;;;;20.70;60.69;102499.00;5004250;28;20061;-81
2022/08/08 08:28:39;;;;;;;5.97;2.42;;;;;;;20.75;61.40;102499.09;5004604;28;20494;-82
2022/08/08 08:31:05;;;;;;;6.20;2.40;;;;;;;20.96;62.11;102496.84;4986221;28;20478;-79
2022/08/08 08:33:31;;;;;;;5.75;2.50;;;;;;;21.18;60.65;102497.03;5007464;28;20037;-78
2022/08/08 08:35:58;;;;;;;4.70;2.40;;;;;;;21.35;58.82;102505.34;4987371;28;20044;-80
2022/08/08 08:38:23;;;;;;;5.53;2.33;;;;;;;21.69;58.03;102508.25;5007342;28;20044;-79
2022/08/08 08:40:49;;;;;;;5.00;2.20;;;;;;;21.91;57.49;102503.72;5004278;28;20033;-79
2022/08/08 08:43:16;;;;;;;6.32;2.60;;;;;;;21.97;58.14;102504.63;5006114;28;20049;-80
2022/08/08 08:45:42;;;;;;;4.13;2.60;;;;;;;22.39;57.36;102511.75;5006892;28;20042;-79
2022/08/08 08:48:09;;;;;;;5.97;2.42;;;;;;;22.57;56.35;102508.69;5007384;28;20033;-80
2022/08/08 08:50:36;;;;;;;3.95;2.20;;;;;;;22.84;55.55;102510.75;4985158;28;20113;-80
2022/08/08 08:53:08;;;;;;;5.18;2.40;;;;;;;23.06;54.13;102516.31;5006701;28;20482;-79
2022/08/08 08:55:37;;;;;;;5.13;2.40;;;;;;;23.38;53.16;102518.41;5006710;28;20478;-78
2022/08/08 08:58:04;;;;;;;3.58;2.00;;;;;;;23.74;53.88;102512.44;5006133;28;20099;-80
2022/08/08 09:00:34;;;;;;;4.18;2.20;;;;;;;23.91;51.39;102507.66;5006626;28;20125;-82
2022/08/08 09:03:05;;;;;;;3.88;2.25;;;;;;;23.55;51.24;102523.84;5006515;28;20772;-82
2022/08/08 09:05:34;;;;;;;4.60;1.90;;;;;;;23.67;50.93;102518.19;5006171;28;20124;-83
2022/08/08 09:08:03;;;;;;;5.47;1.88;;;;;;;23.81;50.83;102512.22;5006595;28;20108;-77
2022/08/08 09:10:31;;;;;;;2.97;1.55;;;;;;;23.82;50.68;102519.44;5006836;28;20030;-81
2022/08/08 09:12:59;;;;;;;3.03;1.60;;;;;;;23.92;50.07;102516.78;5004740;28;20120;-79
2022/08/08 09:15:25;;;;;;;4.85;2.10;;;;;;;23.65;50.86;102514.84;5005454;28;20429;-81
2022/08/08 09:17:50;;;;;;;3.22;1.70;;;;;;;23.41;49.91;102515.13;5005494;28;20033;-79
2022/08/08 09:20:16;;;;;;;3.65;1.60;;;;;;;23.73;50.77;102511.63;4987672;28;20065;-79
2022/08/08 09:22:42;;;;;;;5.55;2.13;;;;;;;23.98;50.81;102513.00;5005789;28;20034;-79
2022/08/08 09:25:09;;;;;;;3.20;1.67;;;;;;;24.38;49.50;102506.13;5005502;28;20051;-79
2022/08/08 09:27:35;;;;;;;4.20;1.60;;;;;;;24.52;48.99;102511.19;5005817;28;20050;-81
2022/08/08 09:30:07;;;;;;;3.88;1.80;;;;;;;24.82;49.09;102518.09;5007313;28;20148;-78
2022/08/08 09:32:49;;;;;;;4.85;2.00;;;;;;;25.05;49.73;102520.44;5005970;28;20034;-79
2022/08/08 09:35:19;;;;;;;4.75;1.90;;;;;;;24.58;48.00;102515.69;5005177;28;20053;-79
2022/08/08 09:37:49;;;;;;;4.03;1.90;;;;;;;24.32;48.93;102518.28;4987049;28;20084;-79
2022/08/08 09:40:17;;;;;;;4.60;1.60;;;;;;;24.75;48.02;102516.41;5005189;28;20494;-80
2022/08/08 09:42:48;;;;;;;4.78;1.70;;;;;;;25.23;48.27;102516.34;5004921;28;20034;-80
2022/08/08 09:45:16;;;;;;;5.35;1.90;;;;;;;25.68;47.16;102522.38;5006052;28;20033;-80
2022/08/08 09:47:42;;;;;;;4.20;2.28;;;;;;;25.55;46.64;102506.22;4988186;28;20606;-79
2022/08/08 09:50:14;;;;;;;8.40;2.10;;;;;;;25.73;47.09;102502.94;5005516;28;20088;-79
2022/08/08 09:52:42;;;;;;;3.42;1.50;;;;;;;25.59;44.83;102507.34;5004840;28;20073;-82
2022/08/08 09:55:09;;;;;;;3.95;1.70;;;;;;;25.52;44.99;102513.16;4986206;28;20037;-82
2022/08/08 09:57:37;;;;;;;2.92;1.63;;;;;;;25.11;45.19;102518.53;5004864;28;20525;-80
2022/08/08 10:00:14;;;;;;;5.85;1.92;;;;;;;25.15;47.05;102516.06;5005140;28;20398;-81
2022/08/08 10:02:43;;;;;;;3.00;1.70;;;;;;;24.80;47.04;102514.75;4988518;28;20397;-81
2022/08/08 10:05:12;;;;;;;5.30;2.22;;;;;;;24.74;46.36;102514.72;5005123;28;20119;-82
2022/08/08 10:07:50;;;;;;;2.03;1.80;;;;;;;24.85;47.88;102512.84;5006125;28;20033;-80
2022/08/08 10:10:45;;;;;;;3.85;1.70;;;;;;;25.24;47.57;102506.94;5005914;28;20025;-79
2022/08/08 10:13:18;;;;;;;4.93;2.15;;;;;;;25.12;45.21;102514.66;4988671;28;20038;-81
2022/08/08 10:15:49;;;;;;;3.05;1.50;;;;;;;25.34;45.76;102514.50;5005503;28;20041;-80
2022/08/08 10:18:32;;;;;;;3.72;1.40;;;;;;;25.63;46.10;102519.56;5005405;28;20112;-81
2022/08/08 10:21:10;;;;;;;4.80;1.40;;;;;;;25.70;45.83;102520.13;5005079;28;20120;-80
2022/08/08 10:23:43;;;;;;;2.85;1.50;;;;;;;25.38;45.15;102523.13;4986430;28;20034;-82
2022/08/08 10:26:34;;;;;;;4.43;1.50;;;;;;;24.83;45.03;102512.25;4985697;28;20034;-80
2022/08/08 10:29:05;;;;;;;4.57;1.67;;;;;;;24.83;45.41;102506.72;4983612;28;20395;-81
2022/08/08 10:34:18;;;;;;;2.55;1.40;;;;;;;24.72;45.82;102519.69;5002523;28;20092;-79
2022/08/08 10:36:44;;;;;;;2.95;1.70;;;;;;;24.30;45.60;102516.88;4984592;28;20214;-80
2022/08/08 10:39:18;;;;;;;4.95;1.60;;;;;;;24.17;47.11;102510.66;5001584;28;20103;-77
2022/08/08 10:41:53;;;;;;;6.28;1.50;;;;;;;24.50;46.80;102513.41;4984378;28;20026;-78
2022/08/08 10:44:43;;;;;;;2.00;1.33;;;;;;;24.91;46.69;102502.63;5001322;28;20033;-83
2022/08/08 10:47:15;;;;;;;3.70;1.52;;;;;;;25.03;44.71;102499.63;5002575;28;20413;-79
2022/08/08 10:49:42;;;;;;;2.90;1.30;;;;;;;24.88;44.39;102509.53;5002005;28;20117;-81
2022/08/08 10:52:08;;;;;;;2.50;1.30;;;;;;;24.83;43.29;102505.91;5001384;28;20573;-81
2022/08/08 10:54:34;;;;;;;1.67;1.20;;;;;;;24.81;42.75;102505.34;4984918;28;20037;-80
2022/08/08 10:57:01;;;;;;;2.78;1.35;;;;;;;25.10;44.00;102495.53;5001705;28;20056;-80
2022/08/08 10:59:27;;;;;;;3.03;1.10;;;;;;;25.56;43.89;102505.13;4983379;28;20120;-80
2022/08/08 11:01:52;;;;;;;3.17;1.30;;;;;;;25.97;43.13;102496.84;5001994;28;20393;-81
2022/08/08 11:04:18;;;;;;;2.05;1.10;;;;;;;26.55;41.08;102501.31;5001502;28;20417;-81
2022/08/08 11:06:44;;;;;;;4.22;1.30;;;;;;;26.69;39.89;102502.38;5001781;28;20030;-80
2022/08/08 11:09:11;;;;;;;1.73;0.90;;;;;;;26.54;41.83;102499.66;5001110;28;20037;-79
2022/08/08 11:11:42;;;;;;;2.75;1.08;;;;;;;26.09;40.00;102497.44;4984219;28;20104;-79
2022/08/08 11:14:10;;;;;;;1.67;1.23;;;;;;;25.50;41.34;102495.09;5002718;28;20037;-81
2022/08/08 11:16:41;;;;;;;4.95;1.50;;;;;;;26.26;41.50;102488.00;5005986;28;20052;-81
2022/08/08 11:19:07;;;;;;;3.78;1.30;;;;;;;26.77;40.49;102501.84;5005210;28;20708;-78
2022/08/08 11:21:35;;;;;;;4.97;1.15;;;;;;;26.84;40.01;102498.78;5004831;28;20157;-82
2022/08/08 11:24:03;;;;;;;1.85;0.98;;;;;;;26.92;39.46;102495.41;5005711;28;20041;-84
2022/08/08 11:26:30;;;;;;;1.38;0.98;;;;;;;27.22;38.07;102485.25;5005390;28;20248;-80
2022/08/08 11:29:01;;;;;;;2.33;1.30;;;;;;;27.75;38.18;102490.28;5005412;28;20066;-81
2022/08/08 11:31:28;;;;;;;2.38;1.05;;;;;;;28.09;37.24;102481.13;5005484;28;20245;-82
2022/08/08 11:33:56;;;;;;;2.22;1.10;;;;;;;27.36;37.08;102491.06;5003983;28;20037;-80
2022/08/08 11:36:21;;;;;;;2.78;1.13;;;;;;;27.20;37.20;102476.38;5004777;28;20030;-79
2022/08/08 11:38:47;;;;;;;2.50;0.98;;;;;;;26.89;37.31;102479.28;5005911;28;20036;-79
2022/08/08 11:41:16;;;;;;;1.67;1.10;;;;;;;27.12;37.48;102482.56;5004484;28;20038;-81
2022/08/08 11:43:43;;;;;;;2.78;0.90;;;;;;;27.17;37.05;102478.91;5005664;28;20039;-80
2022/08/08 11:46:09;;;;;;;2.53;1.00;;;;;;;28.08;36.77;102473.91;5004930;28;20494;-79
2022/08/08 11:48:36;;;;;;;3.17;1.25;;;;;;;27.49;35.04;102472.09;5005406;28;20029;-80
2022/08/08 11:51:02;;;;;;;1.35;0.80;;;;;;;28.00;36.33;102468.94;5005097;28;20045;-80
2022/08/08 11:53:28;;;;;;;2.50;1.15;;;;;;;27.87;35.22;102462.06;4985260;28;20037;-79
2022/08/08 11:55:54;;;;;;;2.33;1.05;;;;;;;27.59;36.09;102464.50;5004525;28;20046;-80